createdAt,value
2023-08-12T00:02:33.470Z,101239.81578265777
2023-08-12T00:05:30.054Z,101241.29088148582
2023-08-12T00:08:25.566Z,101237.39341226414
2023-08-12T00:11:21.177Z,101242.96444715795
2023-08-12T00:14:16.673Z,101239.1724259507
2023-08-12T00:17:12.491Z,101242.89510672448
2023-08-12T00:20:09.790Z,101236.94606508598
2023-08-12T00:23:05.365Z,101234.4790292979
2023-08-12T00:26:00.952Z,101238.26951977109
2023-08-12T00:28:56.477Z,101239.80041959418
2023-08-12T00:31:52.051Z,101235.84934933233
2023-08-12T00:34:47.618Z,101235.91848966455
2023-08-12T00:37:44.200Z,101239.80616229626
2023-08-12T00:40:40.729Z,101239.37100838154
2023-08-12T00:43:36.291Z,101237.73599980728
2023-08-12T00:46:31.883Z,101230.53081338324
2023-08-12T00:49:28.417Z,101235.84810640049
2023-08-12T00:52:24.997Z,101234.58428003581
2023-08-12T00:55:21.540Z,101232.39817952113
2023-08-12T00:58:18.084Z,101228.79316272306
2023-08-12T01:01:15.721Z,101226.54174229714
2023-08-12T01:04:11.209Z,101226.2446408843
2023-08-12T01:07:07.755Z,101224.16739384754
2023-08-12T01:10:04.355Z,101226.2814945763
2023-08-12T01:13:07.865Z,101226.80026669873
2023-08-12T01:16:06.515Z,101231.112161422
2023-08-12T01:19:03.005Z,101231.13549040192
2023-08-12T01:22:02.512Z,101234.31074534224
2023-08-12T01:24:58.147Z,101234.46022449678
2023-08-12T01:27:53.647Z,101230.10728181001
2023-08-12T01:30:56.255Z,101231.84929383158
2023-08-12T01:34:01.715Z,101230.242604443
2023-08-12T01:37:00.353Z,101233.93528258204
2023-08-12T01:39:59.816Z,101232.76191960201
2023-08-12T01:42:56.404Z,101236.46470882712
2023-08-12T01:45:51.968Z,101233.53865403259
2023-08-12T01:48:47.525Z,101235.44833592685
2023-08-12T01:51:44.094Z,101235.00323878108
2023-08-12T01:54:39.638Z,101227.30467093711
2023-08-12T01:57:38.198Z,101227.09105173052
2023-08-12T02:00:34.740Z,101230.90426364305
2023-08-12T02:03:30.399Z,101232.64615537328
2023-08-12T02:06:25.873Z,101233.78171826305
2023-08-12T02:09:22.476Z,101228.5239968942
2023-08-12T02:12:17.989Z,101232.49148821647
2023-08-12T02:15:13.561Z,101239.20735423529
2023-08-12T02:18:09.143Z,101235.97520168997
2023-08-12T02:21:04.660Z,101237.561879613
2023-08-12T02:24:01.279Z,101244.44531448092
2023-08-12T02:26:56.819Z,101236.07078242699
2023-08-12T02:29:52.361Z,101241.89209199548
2023-08-12T02:32:47.925Z,101236.87612967215
2023-08-12T02:35:43.476Z,101237.46097905148
2023-08-12T02:38:39.058Z,101237.05212328436
2023-08-12T02:41:34.657Z,101239.73112680856
2023-08-12T02:44:30.178Z,101242.07920386705
2023-08-12T02:47:25.807Z,101244.3758122319
2023-08-12T02:50:21.298Z,101233.79898521658
2023-08-12T02:53:18.933Z,101241.74385623068
2023-08-12T02:56:14.417Z,101239.92941201557
2023-08-12T02:59:09.997Z,101240.90001431132
2023-08-12T03:02:06.623Z,101241.9957233402
2023-08-12T03:05:02.133Z,101237.05890660906
2023-08-12T03:08:01.668Z,101232.4788990062
2023-08-12T03:11:01.220Z,101243.5768627794
2023-08-12T03:13:56.836Z,101248.62983328929
2023-08-12T03:16:52.323Z,101240.92276674861
2023-08-12T03:19:47.947Z,101245.88329574518
2023-08-12T03:22:43.462Z,101243.13256468716
2023-08-12T03:25:40.032Z,101244.82041175503
2023-08-12T03:28:36.595Z,101241.17421492844
2023-08-12T03:31:32.244Z,101245.11381213706
2023-08-12T03:34:28.690Z,101244.30463744642
2023-08-12T03:37:24.261Z,101250.37713718723
2023-08-12T03:40:19.830Z,101251.99880488269
2023-08-12T03:43:15.397Z,101253.97361617867
2023-08-12T03:46:12.969Z,101256.00809942214
2023-08-12T03:49:08.487Z,101253.85321439015
2023-08-12T03:52:05.071Z,101251.72538052294
2023-08-12T03:55:00.632Z,101251.2160131045
2023-08-12T03:57:56.176Z,101258.6095897808
2023-08-12T04:00:51.783Z,101257.18955252413
2023-08-12T04:03:48.337Z,101261.59466351366
2023-08-12T04:06:48.852Z,101262.47459017514
2023-08-12T04:09:44.423Z,101265.07369406326
2023-08-12T04:12:40.932Z,101263.22045897032
2023-08-12T04:15:37.538Z,101269.16658742797
2023-08-12T04:18:33.123Z,101270.0231030081
2023-08-12T04:21:28.683Z,101277.32126378508
2023-08-12T04:24:24.229Z,101281.8387914702
2023-08-12T04:27:19.798Z,101275.64581339236
2023-08-12T04:30:16.578Z,101279.21784106134
2023-08-12T04:33:12.929Z,101282.28314266691
2023-08-12T04:36:08.507Z,101281.51333769351
2023-08-12T04:39:05.041Z,101278.90771894508
2023-08-12T04:42:00.579Z,101277.3640221784
2023-08-12T04:44:56.137Z,101279.51168184953
2023-08-12T04:47:51.698Z,101276.04218204072
2023-08-12T04:50:47.241Z,101278.11159647915
2023-08-12T04:53:47.804Z,101281.03847959462
2023-08-12T04:56:43.367Z,101275.37696746073
2023-08-12T04:59:41.936Z,101282.4057631548
2023-08-12T05:02:37.535Z,101279.46173879945
2023-08-12T05:05:34.042Z,101281.01831555628
2023-08-12T05:08:29.635Z,101282.455677518
2023-08-12T05:11:26.169Z,101283.37299298786
2023-08-12T05:14:21.743Z,101286.92027870318
2023-08-12T05:17:17.257Z,101288.86162095498
2023-08-12T05:20:12.896Z,101287.3361681558
2023-08-12T05:23:08.432Z,101289.24766314644
2023-08-12T05:26:03.958Z,101293.26651867648
2023-08-12T05:28:59.552Z,101288.81174486151
2023-08-12T05:31:55.168Z,101293.88799597858
2023-08-12T05:34:51.707Z,101298.81777572597
2023-08-12T05:37:47.251Z,101300.41679336525
2023-08-12T05:40:43.792Z,101302.66737340948
2023-08-12T05:43:40.357Z,101301.56892858168
2023-08-12T05:46:35.957Z,101297.98840954305
2023-08-12T05:49:32.520Z,101298.363871744
2023-08-12T05:52:28.079Z,101305.87408675895
2023-08-12T05:55:23.551Z,101309.22542595834
2023-08-12T05:58:19.150Z,101305.98677045942
2023-08-12T06:01:17.701Z,101311.2994517067
2023-08-12T06:04:13.292Z,101306.41551749708
2023-08-12T06:07:09.816Z,101308.32697432843
2023-08-12T06:10:06.381Z,101305.41613547005
2023-08-12T06:13:01.956Z,101301.2049624017
2023-08-12T06:15:57.512Z,101297.42185419207
2023-08-12T06:18:53.042Z,101302.21407121161
2023-08-12T06:21:48.617Z,101303.41602130936
2023-08-12T06:24:45.220Z,101295.1191211749
2023-08-12T06:27:40.761Z,101291.12754290983
2023-08-12T06:30:38.325Z,101294.12531924964
2023-08-12T06:33:33.886Z,101293.82063381237
2023-08-12T06:36:29.418Z,101297.35705819653
2023-08-12T06:39:25.996Z,101300.09968459896
2023-08-12T06:42:23.541Z,101298.83576865807
2023-08-12T06:45:19.086Z,101300.62060356031
2023-08-12T06:48:14.777Z,101299.55762538438
2023-08-12T06:51:11.247Z,101302.70228322438
2023-08-12T06:54:06.798Z,101309.57651751321
2023-08-12T06:57:02.333Z,101309.50198963794
2023-08-12T06:59:58.910Z,101308.79841473924
2023-08-12T07:02:55.525Z,101309.08549645764
2023-08-12T07:05:51.021Z,101304.83228542341
2023-08-12T07:08:46.636Z,101307.95437179544
2023-08-12T07:11:42.173Z,101310.14151795863
2023-08-12T07:14:37.768Z,101310.33214227743
2023-08-12T07:17:34.307Z,101308.78910471484
2023-08-12T07:20:29.841Z,101316.29772059142
2023-08-12T07:23:25.416Z,101308.90838735936
2023-08-12T07:26:20.991Z,101312.02170526856
2023-08-12T07:29:16.546Z,101310.57050180619
2023-08-12T07:32:13.473Z,101314.71491764717
2023-08-12T07:35:10.678Z,101317.71437916049
2023-08-12T07:38:06.197Z,101314.05096993817
2023-08-12T07:41:02.759Z,101309.04868484389
2023-08-12T07:43:58.320Z,101308.67150205393
2023-08-12T07:46:54.911Z,101307.2193338234
2023-08-12T07:49:50.458Z,101309.61423551186
2023-08-12T07:52:46.014Z,101309.99813287526
2023-08-12T07:55:41.586Z,101310.36070049135
2023-08-12T07:58:37.802Z,101308.47568328527
2023-08-12T08:01:34.264Z,101308.6827132989
2023-08-12T08:04:31.344Z,101313.0598835474
2023-08-12T08:07:26.842Z,101317.42959951446
2023-08-12T08:10:24.382Z,101316.4283724823
2023-08-12T08:13:20.954Z,101322.01379112022
2023-08-12T08:16:16.660Z,101323.84604297139
2023-08-12T08:19:13.466Z,101317.37018895448
2023-08-12T08:22:10.998Z,101317.70587116985
2023-08-12T08:25:08.179Z,101320.586307773
2023-08-12T08:28:04.761Z,101315.13182680198
2023-08-12T08:31:00.297Z,101313.08125897642
2023-08-12T08:33:55.851Z,101312.07142537412
2023-08-12T08:36:52.710Z,101311.01102021187
2023-08-12T08:39:47.964Z,101308.94502699318
2023-08-12T08:42:46.522Z,101305.89608757832
2023-08-12T08:45:46.043Z,101302.05135614965
2023-08-12T08:48:42.634Z,101296.71072180785
2023-08-12T08:51:39.188Z,101296.43864793165
2023-08-12T08:54:36.774Z,101297.59408900047
2023-08-12T08:57:41.919Z,101298.1483407537
2023-08-12T09:00:33.868Z,101293.06513539185
2023-08-12T09:03:30.401Z,101297.18395038319
2023-08-12T09:06:29.966Z,101290.7967696695
2023-08-12T09:09:26.521Z,101296.88690433545
2023-08-12T09:12:25.045Z,101292.20164856175
2023-08-12T09:15:21.618Z,101287.42145819007
2023-08-12T09:18:19.190Z,101294.5517798795
2023-08-12T09:21:16.773Z,101290.18844317604
2023-08-12T09:24:14.304Z,101287.06358838025
2023-08-12T09:27:10.883Z,101290.1916159927
2023-08-12T09:30:08.464Z,101289.28707797293
2023-08-12T09:33:08.004Z,101294.45691252871
2023-08-12T09:36:06.585Z,101286.65842177806
2023-08-12T09:39:07.093Z,101283.10413302932
2023-08-12T09:42:03.635Z,101280.49666277813
2023-08-12T09:44:59.195Z,101275.28195014714
2023-08-12T09:47:58.891Z,101277.4790815223
2023-08-12T09:50:55.336Z,101271.6891270514
2023-08-12T09:53:54.877Z,101271.69137841472
2023-08-12T09:56:55.459Z,101274.365882986
2023-08-12T09:59:55.022Z,101264.60956266285
2023-08-12T10:02:53.627Z,101269.02974184572
2023-08-12T10:05:53.076Z,101261.60593909318
2023-08-12T10:08:51.641Z,101260.18631562142
2023-08-12T10:11:48.211Z,101249.58911746154
2023-08-12T10:14:45.741Z,101251.00849289546
2023-08-12T10:17:44.163Z,101246.91105211758
2023-08-12T10:20:44.942Z,101241.84062002922
2023-08-12T10:23:47.682Z,101241.29187350703
2023-08-12T10:26:46.008Z,101243.80652031554
2023-08-12T10:29:43.481Z,101246.7067070262
2023-08-12T10:32:42.092Z,101245.37530528904
2023-08-12T10:35:43.612Z,101244.04620420565
2023-08-12T10:38:39.201Z,101237.8499128039
2023-08-12T10:41:45.676Z,101234.29107215858
2023-08-12T10:44:46.214Z,101229.12141729647
2023-08-12T10:47:44.893Z,101227.63943413783
2023-08-12T10:50:46.387Z,101231.7509194253
2023-08-12T10:53:49.950Z,101232.31885305501
2023-08-12T10:56:57.452Z,101233.17067000426
2023-08-12T10:59:59.565Z,101227.90109183441
2023-08-12T11:03:00.542Z,101222.01146807123
2023-08-12T11:05:57.097Z,101225.60523538277
2023-08-12T11:08:57.652Z,101220.04529819176
2023-08-12T11:11:58.184Z,101223.48191101014
2023-08-12T11:14:58.764Z,101214.1645554249
2023-08-12T11:17:59.327Z,101209.11459421375
2023-08-12T11:20:55.861Z,101209.6735641169
2023-08-12T11:23:55.371Z,101211.24830948957
2023-08-12T11:26:51.954Z,101201.2311013305
2023-08-12T11:29:50.513Z,101193.97719225846
2023-08-12T11:32:47.119Z,101194.10056045259
2023-08-12T11:35:44.624Z,101192.0503095158
2023-08-12T11:38:40.161Z,101191.36451526587
2023-08-12T11:41:36.757Z,101188.54754509481
2023-08-12T11:44:32.323Z,101185.1870080564
2023-08-12T11:47:27.868Z,101184.34716560076
2023-08-12T11:50:25.431Z,101184.79077512756
2023-08-12T11:53:22.991Z,101182.36044196376
2023-08-12T11:56:21.548Z,101177.23994516842
2023-08-12T11:59:22.057Z,101172.86762825928
2023-08-12T12:02:21.611Z,101176.9351337843
2023-08-12T12:05:18.580Z,101168.5732122635
2023-08-12T12:08:16.719Z,101171.18425561264
2023-08-12T12:11:12.341Z,101159.0775450185
2023-08-12T12:14:08.829Z,101165.1733163294
2023-08-12T12:17:13.500Z,101160.35242981768
2023-08-12T12:20:12.020Z,101167.85338934106
2023-08-12T12:23:07.556Z,101160.18232922626
2023-08-12T12:26:04.077Z,101159.27681320261
2023-08-12T12:28:59.666Z,101162.95056393516
2023-08-12T12:31:56.194Z,101149.62825278477
2023-08-12T12:34:54.763Z,101154.18023226188
2023-08-12T12:37:50.922Z,101154.89413371113
2023-08-12T12:40:46.893Z,101157.29524063902
2023-08-12T12:43:43.425Z,101154.3096057155
2023-08-12T12:46:40.013Z,101157.33351316505
2023-08-12T12:49:36.542Z,101155.32925833073
2023-08-12T12:52:32.125Z,101151.75726981308
2023-08-12T12:55:28.765Z,101149.18077354852
2023-08-12T12:58:26.243Z,101144.81474719131
2023-08-12T13:01:21.816Z,101141.69337421942
2023-08-12T13:04:17.355Z,101141.3688657745
2023-08-12T13:07:12.934Z,101141.84970732889
2023-08-12T13:10:09.512Z,101137.01566360204
2023-08-12T13:13:06.051Z,101132.77618060513
2023-08-12T13:16:01.695Z,101126.46616673455
2023-08-12T13:18:59.168Z,101125.62779626816
2023-08-12T13:21:55.712Z,101112.53990250625
2023-08-12T13:24:53.281Z,101122.94149315661
2023-08-12T13:27:49.858Z,101115.18866890144
2023-08-12T13:30:45.426Z,101119.25358511863
2023-08-12T13:33:41.003Z,101117.81623597388
2023-08-12T13:36:37.567Z,101119.11842090862
2023-08-12T13:39:33.113Z,101117.3776184913
2023-08-12T13:42:29.616Z,101113.66098055834
2023-08-12T13:45:25.282Z,101107.0672934817
2023-08-12T13:48:20.895Z,101106.41367177249
2023-08-12T13:51:16.340Z,101106.25590375795
2023-08-12T13:54:11.875Z,101104.19142050092
2023-08-12T13:57:07.472Z,101099.16334212241
2023-08-12T14:00:07.019Z,101092.90483385314
2023-08-12T14:03:02.571Z,101086.92191384692
2023-08-12T14:06:01.258Z,101091.05277767224
2023-08-12T14:08:56.698Z,101088.81969576704
2023-08-12T14:11:53.237Z,101094.88800707509
2023-08-12T14:14:49.786Z,101088.70332053059
2023-08-12T14:17:47.392Z,101091.8002641067
2023-08-12T14:20:43.929Z,101090.9820989573
2023-08-12T14:23:41.449Z,101090.21561207264
2023-08-12T14:26:37.039Z,101091.28810928906
2023-08-12T14:29:32.593Z,101090.93563649041
2023-08-12T14:32:28.164Z,101078.45683411107
2023-08-12T14:35:24.731Z,101081.60147890376
2023-08-12T14:38:22.281Z,101083.54769130328
2023-08-12T14:41:19.880Z,101080.1295837553
2023-08-12T14:44:16.406Z,101080.23216492878
2023-08-12T14:47:12.340Z,101068.27825402403
2023-08-12T14:50:09.562Z,101066.21559717365
2023-08-12T14:53:05.065Z,101069.3493698282
2023-08-12T14:56:01.643Z,101073.7442952733
2023-08-12T14:58:57.192Z,101065.39332486747
2023-08-12T15:01:53.846Z,101069.88691307622
2023-08-12T15:04:49.301Z,101064.20879972953
2023-08-12T15:07:46.961Z,101058.16964990192
2023-08-12T15:10:42.464Z,101066.62094440585
2023-08-12T15:13:38.992Z,101053.76399019994
2023-08-12T15:16:34.548Z,101052.06108099711
2023-08-12T15:19:30.123Z,101046.89047464335
2023-08-12T15:22:27.703Z,101040.70131130032
2023-08-12T15:25:26.247Z,101033.39720110779
2023-08-12T15:28:22.781Z,101035.64002222904
2023-08-12T15:31:20.931Z,101033.11619020338
2023-08-12T15:34:15.882Z,101027.43364805354
2023-08-12T15:37:13.675Z,101030.37659546484
2023-08-12T15:40:10.060Z,101027.2879546137
2023-08-12T15:43:06.582Z,101028.8924398666
2023-08-12T15:46:02.182Z,101029.29498859384
2023-08-12T15:48:57.718Z,101021.18335420213
2023-08-12T15:51:53.224Z,101022.47958406065
2023-08-12T15:54:49.869Z,101025.8324360446
2023-08-12T15:57:45.378Z,101019.08806482669
2023-08-12T16:00:44.001Z,101023.74080526878
2023-08-12T16:03:41.602Z,101028.06050518839
2023-08-12T16:06:38.096Z,101019.49760359328
2023-08-12T16:09:34.732Z,101020.25377052164
2023-08-12T16:12:30.236Z,101021.17786225345
2023-08-12T16:15:25.761Z,101018.16756318758
2023-08-12T16:18:21.328Z,101015.16440657258
2023-08-12T16:21:16.941Z,101017.11288903812
2023-08-12T16:24:12.460Z,101012.62103349602
2023-08-12T16:27:08.000Z,101015.74297417789
2023-08-12T16:30:04.550Z,101007.58289788228
2023-08-12T16:33:01.158Z,101012.5068878232
2023-08-12T16:35:56.662Z,101017.07278969731
2023-08-12T16:38:53.250Z,101015.84451059591
2023-08-12T16:41:49.782Z,101007.02813325947
2023-08-12T16:44:47.108Z,101020.78097547125
2023-08-12T16:47:42.926Z,101009.39160288284
2023-08-12T16:50:39.480Z,101006.54302020239
2023-08-12T16:53:35.030Z,101002.59268448039
2023-08-12T16:56:30.680Z,100999.92363254336
2023-08-12T16:59:27.147Z,100985.08160055203
2023-08-12T17:02:22.922Z,100990.37391651508
2023-08-12T17:05:19.280Z,100993.13285867071
2023-08-12T17:08:14.877Z,100988.0197539963
2023-08-12T17:11:11.393Z,100984.81863937323
2023-08-12T17:14:09.972Z,100988.58641675109
2023-08-12T17:17:06.498Z,100989.36394868665
2023-08-12T17:20:04.042Z,100988.1704971477
2023-08-12T17:22:59.661Z,100987.26516178495
2023-08-12T17:25:55.165Z,100986.42924451953
2023-08-12T17:28:51.755Z,100991.54712334987
2023-08-12T17:31:50.307Z,100990.58271708986
2023-08-12T17:34:45.871Z,100986.53775348773
2023-08-12T17:37:41.480Z,100985.4178597
2023-08-12T17:40:38.579Z,100986.89731250022
2023-08-12T17:43:34.563Z,100978.65349807427
2023-08-12T17:46:30.158Z,100981.85106745256
2023-08-12T17:49:25.653Z,100979.6921076512
2023-08-12T17:52:21.212Z,100977.5245643314
2023-08-12T17:55:16.803Z,100978.8145006712
2023-08-12T17:58:12.377Z,100984.9606032233
2023-08-12T18:01:07.947Z,100983.60460096312
2023-08-12T18:04:04.490Z,100985.28693377673
2023-08-12T18:07:00.042Z,100981.26221951316
2023-08-12T18:09:55.588Z,100998.313772766
2023-08-12T18:12:51.146Z,100994.66972838149
2023-08-12T18:15:46.830Z,101000.32298274068
2023-08-12T18:18:43.133Z,101009.88637156315
2023-08-12T18:21:40.854Z,101002.81414018715
2023-08-12T18:24:37.402Z,101002.98349820053
2023-08-12T18:27:32.961Z,101007.6617182657
2023-08-12T18:30:30.693Z,101009.23448740525
2023-08-12T18:33:26.133Z,101012.64570443016
2023-08-12T18:36:21.648Z,101004.95754583334
2023-08-12T18:39:18.255Z,101009.65363011259
2023-08-12T18:42:14.043Z,101015.10289271298
2023-08-12T18:45:10.529Z,101019.66925509773
2023-08-12T18:48:13.948Z,101015.01156339342
2023-08-12T18:51:09.423Z,101017.33797075605
2023-08-12T18:54:06.993Z,101014.51457203215
2023-08-12T18:57:03.565Z,101018.83442406228
2023-08-12T19:00:01.099Z,101018.3083678151
2023-08-12T19:03:06.694Z,101023.45970762103
2023-08-12T19:06:03.212Z,101024.99889817022
2023-08-12T19:08:59.749Z,101028.47660930193
2023-08-12T19:11:56.292Z,101030.16131613066
2023-08-12T19:14:53.866Z,101033.59852777129
2023-08-12T19:17:49.527Z,101034.42621754504
2023-08-12T19:20:46.042Z,101041.09518798621
2023-08-12T19:23:41.573Z,101045.57168079923
2023-08-12T19:26:38.095Z,101042.74303165145
2023-08-12T19:29:34.650Z,101041.97285410961
2023-08-12T19:32:30.259Z,101044.1858713604
2023-08-12T19:35:27.815Z,101053.531040501
2023-08-12T19:38:26.364Z,101052.14438228573
2023-08-12T19:41:21.912Z,101053.10055429695
2023-08-12T19:44:17.474Z,101050.4085359787
2023-08-12T19:47:13.053Z,101051.41207784541
2023-08-12T19:50:10.600Z,101063.58867459558
2023-08-12T19:53:07.145Z,101063.62748298283
2023-08-12T19:56:03.712Z,101062.65298157558
2023-08-12T19:58:59.268Z,101058.97157269911
2023-08-12T20:01:57.847Z,101054.54583730975
2023-08-12T20:04:53.386Z,101047.75126669722
2023-08-12T20:07:49.949Z,101061.08068671635
2023-08-12T20:10:47.470Z,101057.62257215513
2023-08-12T20:13:45.124Z,101069.61384974171
2023-08-12T20:16:40.665Z,101070.39815261701
2023-08-12T20:19:36.180Z,101076.72060960784
2023-08-12T20:22:32.764Z,101073.38491503289
2023-08-12T20:25:29.307Z,101069.43701991417
2023-08-12T20:28:27.867Z,101071.60152017775
2023-08-12T20:31:24.499Z,101073.18724268647
2023-08-12T20:34:19.969Z,101079.0622970132
2023-08-12T20:37:16.696Z,101082.62803790973
2023-08-12T20:40:14.122Z,101080.42703071429
2023-08-12T20:43:10.650Z,101077.92134324569
2023-08-12T20:46:06.281Z,101077.8334509848
2023-08-12T20:49:04.783Z,101075.70586238697
2023-08-12T20:52:00.344Z,101083.63305014113
2023-08-12T20:54:55.924Z,101090.5603229511
2023-08-12T20:57:51.465Z,101084.91565453676
2023-08-12T21:00:47.022Z,101085.91509948092
2023-08-12T21:03:42.650Z,101085.07965800862
2023-08-12T21:06:41.134Z,101090.48298305743
2023-08-12T21:09:38.337Z,101086.38389899381
2023-08-12T21:12:36.251Z,101084.50853418803
2023-08-12T21:15:31.827Z,101083.93679660767
2023-08-12T21:18:28.417Z,101086.35570509608
2023-08-12T21:21:24.927Z,101094.17957888296
2023-08-12T21:24:21.500Z,101090.52857980301
2023-08-12T21:27:18.660Z,101091.3105417252
2023-08-12T21:30:13.681Z,101091.64881145443
2023-08-12T21:33:13.155Z,101089.0675585393
2023-08-12T21:36:09.776Z,101095.34843658129
2023-08-12T21:39:06.356Z,101090.80801140136
2023-08-12T21:42:02.833Z,101087.44713302348
2023-08-12T21:44:58.422Z,101087.57050259452
2023-08-12T21:47:55.029Z,101093.31973307501
2023-08-12T21:50:51.522Z,101097.50912682016
2023-08-12T21:53:47.119Z,101095.89894265663
2023-08-12T21:56:42.633Z,101088.84707187291
2023-08-12T21:59:39.222Z,101090.72788827092
2023-08-12T22:02:34.802Z,101088.55032904622
2023-08-12T22:05:31.360Z,101099.95061835826
2023-08-12T22:08:28.877Z,101089.14044037629
2023-08-12T22:11:27.460Z,101091.07964558748
2023-08-12T22:14:22.992Z,101081.79344835642
2023-08-12T22:17:18.599Z,101084.06695953247
2023-08-12T22:20:14.099Z,101081.15344312652
2023-08-12T22:23:09.682Z,101080.60255927363
2023-08-12T22:26:05.234Z,101085.56072773717
2023-08-12T22:29:00.840Z,101076.3309004344
2023-08-12T22:31:57.378Z,101079.43557719288
2023-08-12T22:34:53.941Z,101076.47127036733
2023-08-12T22:37:49.546Z,101077.87926586805
2023-08-12T22:40:45.041Z,101073.29620263197
2023-08-12T22:43:40.581Z,101076.9272162312
2023-08-12T22:46:36.246Z,101075.74138410455
2023-08-12T22:49:31.808Z,101073.52989369677
2023-08-12T22:52:27.297Z,101078.38221540453
2023-08-12T22:55:22.888Z,101074.15078478225
2023-08-12T22:58:18.401Z,101071.42873030578
2023-08-12T23:01:14.057Z,101066.30758406923
2023-08-12T23:04:10.598Z,101068.34498846633
2023-08-12T23:07:07.126Z,101064.88587235854
2023-08-12T23:10:03.652Z,101061.59797389747
2023-08-12T23:12:59.221Z,101062.01131886987
2023-08-12T23:15:54.790Z,101054.52878249803
2023-08-12T23:18:50.330Z,101054.40701143564
2023-08-12T23:21:45.908Z,101053.42797485938
2023-08-12T23:24:42.467Z,101051.07023869928
2023-08-12T23:27:38.023Z,101051.80564205743
2023-08-12T23:30:34.621Z,101057.4937284572
2023-08-12T23:33:30.170Z,101054.83157442982
2023-08-12T23:36:25.717Z,101047.28899172442
2023-08-12T23:39:22.304Z,101050.68719030518
2023-08-12T23:42:17.836Z,101052.1273481095
2023-08-12T23:45:13.392Z,101052.07934321783
2023-08-12T23:48:11.973Z,101053.06621778417
2023-08-12T23:51:12.507Z,101052.84762402768
2023-08-12T23:54:09.061Z,101049.77227823494
2023-08-12T23:57:05.619Z,101052.68467417065
